createdAt,value
2022-12-26T00:01:55.538Z,4.93
2022-12-26T00:04:49.910Z,4.68
2022-12-26T00:07:09.785Z,4.57
2022-12-26T00:09:36.319Z,4.88
2022-12-26T00:12:02.987Z,4.70
2022-12-26T00:14:29.476Z,4.78
2022-12-26T00:16:55.942Z,4.97
2022-12-26T00:19:22.555Z,4.82
2022-12-26T00:21:49.086Z,4.35
2022-12-26T00:24:15.643Z,4.70
2022-12-26T00:26:42.162Z,4.38
2022-12-26T00:29:08.740Z,4.90
2022-12-26T00:31:35.865Z,5.32
2022-12-26T00:34:05.230Z,3.90
2022-12-26T00:36:33.209Z,4.43
2022-12-26T00:39:01.725Z,4.25
2022-12-26T00:41:29.356Z,4.78
2022-12-26T00:43:56.267Z,4.50
2022-12-26T00:46:23.425Z,5.00
2022-12-26T00:48:50.177Z,4.22
2022-12-26T00:51:16.922Z,4.75
2022-12-26T00:53:43.664Z,4.22
2022-12-26T00:56:10.293Z,4.25
2022-12-26T00:58:37.382Z,4.22
2022-12-26T01:01:11.169Z,4.40
2022-12-26T01:03:37.864Z,4.20
2022-12-26T01:06:05.024Z,4.65
2022-12-26T01:08:31.714Z,4.07
2022-12-26T01:10:58.481Z,4.13
2022-12-26T01:13:25.082Z,4.68
2022-12-26T01:15:53.444Z,4.20
2022-12-26T01:18:22.039Z,4.30
2022-12-26T01:20:49.217Z,4.10
2022-12-26T01:23:16.575Z,4.15
2022-12-26T01:26:15.143Z,4.20
2022-12-26T01:28:29.764Z,3.85
2022-12-26T01:31:00.433Z,4.18
2022-12-26T01:35:53.777Z,3.47
2022-12-26T01:38:21.391Z,3.55
2022-12-26T01:40:49.453Z,3.45
2022-12-26T01:43:16.699Z,3.72
2022-12-26T01:45:50.643Z,3.80
2022-12-26T01:48:33.432Z,3.90
2022-12-26T01:51:05.819Z,3.50
2022-12-26T01:53:48.369Z,4.10
2022-12-26T01:56:30.437Z,3.72
2022-12-26T01:59:06.188Z,3.70
2022-12-26T02:01:37.467Z,3.72
2022-12-26T02:04:27.498Z,3.72
2022-12-26T02:06:54.425Z,3.95
2022-12-26T02:09:21.587Z,3.85
2022-12-26T02:12:35.672Z,3.60
2022-12-26T02:14:42.621Z,3.83
2022-12-26T02:17:09.506Z,3.55
2022-12-26T02:20:01.999Z,3.80
2022-12-26T02:22:50.211Z,3.40
2022-12-26T02:25:51.711Z,3.33
2022-12-26T02:28:43.312Z,3.50
2022-12-26T02:31:31.753Z,3.70
2022-12-26T02:34:40.225Z,3.28
2022-12-26T02:37:18.992Z,3.33
2022-12-26T02:40:03.684Z,3.80
2022-12-26T02:42:58.180Z,3.83
2022-12-26T02:45:55.006Z,3.60
2022-12-26T02:48:40.055Z,3.38
2022-12-26T02:51:44.062Z,3.42
2022-12-26T02:54:38.945Z,3.53
2022-12-26T02:57:30.871Z,4.07
2022-12-26T03:00:18.338Z,3.03
2022-12-26T03:03:10.754Z,3.33
2022-12-26T03:06:32.996Z,3.50
2022-12-26T03:09:25.870Z,3.45
2022-12-26T03:12:15.683Z,3.50
2022-12-26T03:14:48.080Z,3.30
2022-12-26T03:17:31.635Z,3.58
2022-12-26T03:20:26.909Z,3.20
2022-12-26T03:22:57.958Z,3.03
2022-12-26T03:26:01.691Z,3.10
2022-12-26T03:28:28.419Z,3.22
2022-12-26T03:30:58.495Z,2.88
2022-12-26T03:33:52.922Z,3.72
2022-12-26T03:36:40.384Z,3.33
2022-12-26T03:39:12.873Z,3.00
2022-12-26T03:42:18.833Z,3.55
2022-12-26T03:45:17.219Z,3.40
2022-12-26T03:48:23.489Z,3.40
2022-12-26T03:51:18.569Z,3.13
2022-12-26T03:54:10.502Z,3.40
2022-12-26T03:57:11.304Z,2.92
2022-12-26T04:02:50.689Z,3.42
2022-12-26T04:05:37.463Z,3.17
2022-12-26T04:08:29.956Z,3.13
2022-12-26T04:11:17.765Z,2.88
2022-12-26T04:14:21.675Z,2.83
2022-12-26T04:17:15.144Z,2.80
2022-12-26T04:19:50.652Z,3.22
2022-12-26T04:22:46.500Z,3.40
2022-12-26T04:25:48.571Z,2.90
2022-12-26T04:28:36.688Z,3.45
2022-12-26T04:31:50.213Z,3.13
2022-12-26T04:34:45.220Z,2.78
2022-12-26T04:37:39.512Z,3.08
2022-12-26T04:40:29.328Z,3.03
2022-12-26T04:43:49.389Z,3.33
2022-12-26T04:46:03.131Z,3.13
2022-12-26T04:48:48.636Z,3.00
2022-12-26T04:51:15.174Z,3.15
2022-12-26T04:53:41.755Z,3.30
2022-12-26T04:56:10.604Z,3.22
2022-12-26T04:58:37.172Z,3.17
2022-12-26T05:01:22.488Z,3.00
2022-12-26T05:04:07.657Z,3.17
2022-12-26T05:06:52.357Z,3.03
2022-12-26T05:09:35.332Z,2.85
2022-12-26T05:12:03.772Z,2.90
2022-12-26T05:14:31.801Z,3.05
2022-12-26T05:17:17.828Z,2.72
2022-12-26T05:20:03.220Z,2.85
2022-12-26T05:22:51.149Z,2.60
2022-12-26T05:25:41.205Z,3.13
2022-12-26T05:28:30.555Z,3.25
2022-12-26T05:30:57.216Z,2.80
2022-12-26T05:33:42.294Z,2.90
2022-12-26T05:36:10.368Z,2.83
2022-12-26T05:38:37.427Z,2.75
2022-12-26T05:41:04.262Z,2.72
2022-12-26T05:43:30.840Z,2.53
2022-12-26T05:45:57.413Z,2.80
2022-12-26T05:48:24.036Z,2.63
2022-12-26T05:50:50.592Z,2.90
2022-12-26T05:53:17.142Z,2.50
2022-12-26T05:55:43.826Z,2.83
2022-12-26T05:58:10.401Z,2.42
2022-12-26T06:00:36.880Z,2.80
2022-12-26T06:03:03.628Z,2.60
2022-12-26T06:05:30.227Z,2.92
2022-12-26T06:07:56.750Z,2.63
2022-12-26T06:10:23.351Z,2.60
2022-12-26T06:12:49.895Z,2.63
2022-12-26T06:15:16.676Z,3.15
2022-12-26T06:17:43.201Z,2.40
2022-12-26T06:20:10.193Z,2.90
2022-12-26T06:22:37.708Z,3.10
2022-12-26T06:25:04.512Z,2.50
2022-12-26T06:27:31.046Z,3.00
2022-12-26T06:29:57.589Z,2.97
2022-12-26T06:32:24.178Z,2.65
2022-12-26T06:34:50.790Z,2.67
2022-12-26T06:37:17.467Z,2.88
2022-12-26T06:39:44.010Z,2.97
2022-12-26T06:42:10.616Z,2.88
2022-12-26T06:44:37.754Z,2.83
2022-12-26T06:47:04.413Z,3.10
2022-12-26T06:49:33.252Z,2.78
2022-12-26T06:52:00.015Z,2.90
2022-12-26T06:54:26.500Z,2.95
2022-12-26T06:56:53.019Z,2.92
2022-12-26T06:59:19.536Z,2.78
2022-12-26T07:01:46.195Z,2.55
2022-12-26T07:04:13.468Z,3.03
2022-12-26T07:06:40.216Z,3.05
2022-12-26T07:09:15.119Z,2.90
2022-12-26T07:11:45.182Z,3.00
2022-12-26T07:14:13.793Z,2.50
2022-12-26T07:16:41.937Z,2.95
2022-12-26T07:19:10.831Z,2.38
2022-12-26T07:21:40.800Z,3.13
2022-12-26T07:24:17.884Z,2.88
2022-12-26T07:26:45.756Z,2.63
2022-12-26T07:29:13.236Z,2.85
2022-12-26T07:31:41.013Z,2.58
2022-12-26T07:34:08.166Z,2.72
2022-12-26T07:36:35.404Z,3.08
2022-12-26T07:39:02.049Z,2.90
2022-12-26T07:41:47.882Z,2.88
2022-12-26T07:44:14.722Z,3.17
2022-12-26T07:46:41.334Z,3.20
2022-12-26T07:49:08.979Z,3.20
2022-12-26T07:51:35.578Z,3.45
2022-12-26T07:54:07.128Z,4.07
2022-12-26T07:56:35.916Z,3.30
2022-12-26T07:59:02.596Z,3.10
2022-12-26T08:01:29.392Z,3.40
2022-12-26T08:03:56.884Z,3.13
2022-12-26T08:06:23.528Z,3.58
2022-12-26T08:08:51.691Z,3.63
2022-12-26T08:11:23.319Z,3.83
2022-12-26T08:13:50.642Z,3.92
2022-12-26T08:16:18.065Z,4.07
2022-12-26T08:18:44.631Z,4.00
2022-12-26T08:21:12.191Z,4.10
2022-12-26T08:23:39.147Z,4.25
2022-12-26T08:26:12.038Z,4.32
2022-12-26T08:28:38.753Z,4.07
2022-12-26T08:31:10.446Z,4.25
2022-12-26T08:33:37.090Z,4.35
2022-12-26T08:36:09.165Z,4.10
2022-12-26T08:38:37.167Z,4.45
2022-12-26T08:41:03.830Z,3.97
2022-12-26T08:43:52.787Z,4.03
2022-12-26T08:46:18.183Z,4.00
2022-12-26T08:48:45.046Z,3.75
2022-12-26T08:51:15.606Z,4.15
2022-12-26T08:56:13.597Z,4.47
2022-12-26T08:58:40.339Z,4.00
2022-12-26T09:01:14.355Z,4.18
2022-12-26T09:03:42.119Z,3.65
2022-12-26T09:06:10.372Z,3.97
2022-12-26T09:08:37.559Z,4.20
2022-12-26T09:11:06.463Z,4.38
2022-12-26T09:13:34.483Z,4.28
2022-12-26T09:16:25.921Z,4.10
2022-12-26T09:18:58.265Z,4.70
2022-12-26T09:21:25.683Z,4.35
2022-12-26T09:23:58.004Z,4.47
2022-12-26T09:26:25.049Z,4.22
2022-12-26T09:28:52.849Z,4.00
2022-12-26T09:31:25.144Z,3.78
2022-12-26T09:33:53.537Z,3.72
2022-12-26T09:36:23.982Z,3.78
2022-12-26T09:38:51.317Z,3.65
2022-12-26T09:41:48.505Z,3.83
2022-12-26T09:44:34.262Z,3.60
2022-12-26T09:47:18.707Z,3.75
2022-12-26T09:50:18.563Z,3.67
2022-12-26T09:52:44.970Z,3.40
2022-12-26T09:55:48.945Z,3.47
2022-12-26T09:58:51.267Z,3.60
2022-12-26T10:01:23.707Z,3.58
2022-12-26T10:03:54.568Z,3.50
2022-12-26T10:06:22.227Z,3.40
2022-12-26T10:09:04.183Z,2.97
2022-12-26T10:11:55.152Z,3.03
2022-12-26T10:14:49.584Z,2.92
2022-12-26T10:17:28.849Z,3.15
2022-12-26T10:19:58.081Z,2.80
2022-12-26T10:22:46.332Z,2.83
2022-12-26T10:25:41.549Z,2.80
2022-12-26T10:28:18.551Z,2.75
2022-12-26T10:30:47.021Z,2.75
2022-12-26T10:33:25.704Z,2.70
2022-12-26T10:35:52.321Z,3.10
2022-12-26T10:38:33.890Z,2.83
2022-12-26T10:41:09.200Z,2.60
2022-12-26T10:43:42.748Z,2.63
2022-12-26T10:46:34.114Z,2.40
2022-12-26T10:49:01.031Z,2.40
2022-12-26T10:51:27.892Z,2.40
2022-12-26T10:53:55.696Z,1.88
2022-12-26T10:56:25.284Z,2.00
2022-12-26T10:59:04.199Z,2.30
2022-12-26T11:01:37.671Z,2.50
2022-12-26T11:04:18.766Z,2.03
2022-12-26T11:06:52.729Z,1.70
2022-12-26T11:12:05.497Z,1.95
2022-12-26T11:14:37.520Z,2.00
2022-12-26T11:17:07.632Z,1.70
2022-12-26T11:19:47.195Z,2.10
2022-12-26T11:22:21.486Z,2.25
2022-12-26T11:25:13.957Z,2.30
2022-12-26T11:27:44.418Z,1.80
2022-12-26T11:30:14.003Z,1.70
2022-12-26T11:32:47.836Z,1.60
2022-12-26T11:35:23.680Z,1.85
2022-12-26T11:37:56.866Z,1.70
2022-12-26T11:40:29.950Z,1.42
2022-12-26T11:42:59.054Z,1.38
2022-12-26T11:45:32.803Z,1.30
2022-12-26T11:48:02.428Z,1.52
2022-12-26T11:50:30.724Z,1.38
2022-12-26T11:52:59.689Z,1.15
2022-12-26T11:55:37.254Z,1.50
2022-12-26T11:58:06.939Z,1.50
2022-12-26T12:00:36.162Z,1.20
2022-12-26T12:03:09.915Z,1.30
2022-12-26T12:06:27.455Z,1.23
2022-12-26T12:09:21.331Z,1.52
2022-12-26T12:12:12.883Z,1.60
2022-12-26T12:15:12.919Z,1.30
2022-12-26T12:18:10.056Z,1.50
2022-12-26T12:20:57.106Z,1.40
2022-12-26T12:23:44.163Z,1.55
2022-12-26T12:26:16.600Z,1.25
2022-12-26T12:29:04.061Z,1.60
2022-12-26T12:31:52.510Z,1.75
2022-12-26T12:34:55.272Z,1.63
2022-12-26T12:37:36.570Z,1.88
2022-12-26T12:40:28.679Z,1.60
2022-12-26T12:43:03.034Z,1.67
2022-12-26T12:46:00.272Z,1.95
2022-12-26T12:48:43.479Z,1.70
2022-12-26T12:51:24.346Z,1.63
2022-12-26T12:54:12.043Z,1.88
2022-12-26T12:57:15.602Z,1.80
2022-12-26T13:00:03.628Z,1.98
2022-12-26T13:02:38.776Z,2.10
2022-12-26T13:05:20.798Z,1.83
2022-12-26T13:07:54.044Z,2.00
2022-12-26T13:10:30.903Z,2.20
2022-12-26T13:12:59.773Z,2.10
2022-12-26T13:15:38.433Z,2.33
2022-12-26T13:18:18.036Z,1.80
2022-12-26T13:20:47.326Z,1.70
2022-12-26T13:24:24.342Z,1.90
2022-12-26T13:27:00.461Z,1.85
2022-12-26T13:29:40.755Z,1.88
2022-12-26T13:32:26.462Z,1.90
2022-12-26T13:34:56.137Z,1.98
2022-12-26T13:37:37.920Z,1.63
2022-12-26T13:40:17.868Z,1.60
2022-12-26T13:43:08.368Z,1.65
2022-12-26T13:45:37.989Z,1.40
2022-12-26T13:48:16.489Z,1.67
2022-12-26T13:50:56.468Z,1.35
2022-12-26T13:53:26.322Z,1.30
2022-12-26T13:55:54.046Z,1.20
2022-12-26T13:58:29.925Z,1.33
2022-12-26T14:01:20.129Z,1.23
2022-12-26T14:04:19.432Z,1.50
2022-12-26T14:07:19.911Z,2.30
2022-12-26T14:09:58.818Z,1.00
2022-12-26T14:13:10.794Z,1.02
2022-12-26T14:15:43.431Z,1.40
2022-12-26T14:18:35.879Z,1.40
2022-12-26T14:21:25.848Z,1.08
2022-12-26T14:24:23.423Z,1.10
2022-12-26T14:27:09.660Z,0.80
2022-12-26T14:30:13.729Z,0.70
2022-12-26T14:32:51.675Z,1.10
2022-12-26T14:35:56.458Z,1.30
2022-12-26T14:38:27.813Z,1.10
2022-12-26T14:41:00.877Z,1.08
2022-12-26T14:43:37.105Z,1.45
2022-12-26T14:46:26.831Z,1.90
2022-12-26T14:48:57.671Z,1.70
2022-12-26T14:51:29.864Z,1.50
2022-12-26T14:54:22.237Z,1.50
2022-12-26T14:56:51.197Z,1.40
2022-12-26T14:59:33.222Z,1.70
2022-12-26T15:02:17.181Z,1.40
2022-12-26T15:05:00.770Z,1.33
2022-12-26T15:08:04.326Z,1.48
2022-12-26T15:10:53.314Z,1.65
2022-12-26T15:13:25.935Z,1.58
2022-12-26T15:16:02.931Z,1.42
2022-12-26T15:19:19.020Z,1.30
2022-12-26T15:22:04.013Z,1.42
2022-12-26T15:25:16.910Z,1.27
2022-12-26T15:27:54.324Z,1.83
2022-12-26T15:30:46.289Z,2.35
2022-12-26T15:33:29.251Z,2.10
2022-12-26T15:36:13.818Z,1.63
2022-12-26T15:38:54.299Z,1.33
2022-12-26T15:41:36.032Z,1.40
2022-12-26T15:44:05.434Z,0.70
2022-12-26T15:46:36.912Z,0.70
2022-12-26T15:49:31.223Z,1.10
2022-12-26T15:52:00.838Z,1.08
2022-12-26T15:54:39.580Z,1.10
2022-12-26T15:57:06.030Z,1.63
2022-12-26T16:00:09.767Z,1.45
2022-12-26T16:02:46.762Z,1.35
2022-12-26T16:05:41.791Z,1.30
2022-12-26T16:08:30.102Z,1.25
2022-12-26T16:11:25.746Z,1.30
2022-12-26T16:14:01.272Z,1.25
2022-12-26T16:16:32.260Z,2.38
2022-12-26T16:19:15.131Z,3.22
2022-12-26T16:22:01.497Z,3.30
2022-12-26T16:24:28.223Z,2.65
2022-12-26T16:26:55.303Z,2.65
2022-12-26T16:29:22.708Z,1.48
2022-12-26T16:31:49.270Z,1.25
2022-12-26T16:34:19.675Z,1.02
2022-12-26T16:36:49.921Z,0.90
2022-12-26T16:39:23.418Z,1.17
2022-12-26T16:42:03.956Z,1.52
2022-12-26T16:47:02.940Z,1.60
2022-12-26T16:49:31.411Z,0.98
2022-12-26T16:51:58.438Z,1.27
2022-12-26T16:54:37.488Z,1.02
2022-12-26T16:57:15.883Z,1.42
2022-12-26T16:59:55.108Z,2.85
2022-12-26T17:02:34.040Z,5.45
2022-12-26T17:05:07.796Z,1.60
2022-12-26T17:07:39.256Z,1.70
2022-12-26T17:10:12.254Z,1.30
2022-12-26T17:12:40.509Z,1.35
2022-12-26T17:15:08.203Z,1.30
2022-12-26T17:17:37.631Z,1.40
2022-12-26T17:20:22.633Z,1.30
2022-12-26T17:22:51.432Z,2.47
2022-12-26T17:25:17.921Z,3.65
2022-12-26T17:27:45.477Z,2.85
2022-12-26T17:30:26.846Z,1.73
2022-12-26T17:32:53.734Z,1.90
2022-12-26T17:35:25.756Z,1.60
2022-12-26T17:37:57.671Z,0.90
2022-12-26T17:40:33.123Z,1.30
2022-12-26T17:43:11.677Z,1.42
2022-12-26T17:45:46.882Z,1.80
2022-12-26T17:48:14.334Z,1.27
2022-12-26T17:50:44.402Z,1.70
2022-12-26T17:53:26.896Z,1.60
2022-12-26T17:55:55.424Z,2.25
2022-12-26T17:58:22.535Z,1.92
2022-12-26T18:00:49.927Z,2.00
2022-12-26T18:03:17.010Z,1.80
2022-12-26T18:05:44.119Z,2.47
2022-12-26T18:08:37.324Z,3.08
2022-12-26T18:11:06.449Z,3.10
2022-12-26T18:13:33.236Z,2.40
2022-12-26T18:16:00.140Z,2.22
2022-12-26T18:18:41.312Z,1.40
2022-12-26T18:21:10.890Z,1.80
2022-12-26T18:23:38.444Z,1.92
2022-12-26T18:26:17.678Z,1.88
2022-12-26T18:28:44.728Z,3.20
2022-12-26T18:31:16.384Z,2.30
2022-12-26T18:33:43.111Z,1.98
2022-12-26T18:36:14.573Z,2.00
2022-12-26T18:38:41.678Z,1.77
2022-12-26T18:41:16.255Z,2.13
2022-12-26T18:43:42.790Z,5.15
2022-12-26T18:46:17.359Z,3.60
2022-12-26T18:48:44.064Z,2.70
2022-12-26T18:51:12.025Z,2.08
2022-12-26T18:53:39.044Z,1.60
2022-12-26T18:56:06.333Z,1.10
2022-12-26T18:58:33.220Z,1.17
2022-12-26T19:01:03.789Z,1.00
2022-12-26T19:05:57.864Z,1.48
2022-12-26T19:08:24.720Z,1.23
2022-12-26T19:10:51.638Z,1.88
2022-12-26T19:13:18.614Z,1.60
2022-12-26T19:15:47.049Z,1.00
2022-12-26T19:18:13.995Z,1.65
2022-12-26T19:20:44.368Z,1.40
2022-12-26T19:23:11.685Z,3.38
2022-12-26T19:25:38.257Z,2.10
2022-12-26T19:28:04.829Z,1.67
2022-12-26T19:30:38.267Z,1.50
2022-12-26T19:33:05.725Z,1.83
2022-12-26T19:35:32.802Z,2.38
2022-12-26T19:37:59.799Z,2.00
2022-12-26T19:40:26.432Z,1.83
2022-12-26T19:42:53.146Z,1.77
2022-12-26T19:45:20.313Z,1.52
2022-12-26T19:47:47.009Z,1.80
2022-12-26T19:50:13.971Z,1.90
2022-12-26T19:52:41.612Z,1.65
2022-12-26T19:55:10.717Z,1.67
2022-12-26T19:57:37.355Z,1.75
2022-12-26T20:00:05.643Z,2.15
2022-12-26T20:02:32.255Z,1.90
2022-12-26T20:04:59.490Z,2.10
2022-12-26T20:07:26.308Z,1.85
2022-12-26T20:09:52.848Z,3.05
2022-12-26T20:12:19.872Z,2.60
2022-12-26T20:14:46.551Z,1.75
2022-12-26T20:17:13.758Z,2.00
2022-12-26T20:19:40.736Z,2.85
2022-12-26T20:22:07.683Z,2.50
2022-12-26T20:24:34.621Z,2.45
2022-12-26T20:27:02.060Z,2.58
2022-12-26T20:29:28.702Z,2.28
2022-12-26T20:31:55.876Z,2.22
2022-12-26T20:34:22.706Z,2.10
2022-12-26T20:36:49.399Z,2.10
2022-12-26T20:39:18.003Z,2.22
2022-12-26T20:41:45.238Z,2.40
2022-12-26T20:44:13.661Z,2.55
2022-12-26T20:46:41.685Z,3.00
2022-12-26T20:49:08.971Z,2.85
2022-12-26T20:51:38.071Z,2.78
2022-12-26T20:54:06.757Z,2.70
2022-12-26T20:56:33.693Z,1.95
2022-12-26T20:59:00.195Z,1.83
2022-12-26T21:01:28.280Z,1.65
2022-12-26T21:03:56.560Z,1.30
2022-12-26T21:06:37.630Z,1.75
2022-12-26T21:09:06.528Z,1.30
2022-12-26T21:11:36.186Z,1.42
2022-12-26T21:14:06.390Z,1.13
2022-12-26T21:16:43.415Z,1.33
2022-12-26T21:19:15.317Z,1.60
2022-12-26T21:21:45.358Z,1.45
2022-12-26T21:24:18.821Z,1.33
2022-12-26T21:26:46.192Z,1.40
2022-12-26T21:29:19.287Z,1.15
2022-12-26T21:31:46.528Z,1.23
2022-12-26T21:34:15.173Z,1.48
2022-12-26T21:37:02.322Z,1.17
2022-12-26T21:39:29.190Z,1.58
2022-12-26T21:41:55.731Z,1.27
2022-12-26T21:44:22.286Z,1.10
2022-12-26T21:46:48.807Z,1.60
2022-12-26T21:49:15.476Z,1.20
2022-12-26T21:51:41.983Z,1.05
2022-12-26T21:54:27.095Z,1.20
2022-12-26T21:56:53.766Z,1.08
2022-12-26T21:59:38.963Z,1.23
2022-12-26T22:02:25.864Z,1.05
2022-12-26T22:04:52.547Z,0.80
2022-12-26T22:07:19.162Z,0.90
2022-12-26T22:09:45.666Z,0.90
2022-12-26T22:12:30.641Z,1.15
2022-12-26T22:14:57.183Z,2.25
2022-12-26T22:17:23.732Z,1.30
2022-12-26T22:19:51.433Z,1.40
2022-12-26T22:22:17.963Z,1.92
2022-12-26T22:24:44.514Z,1.20
2022-12-26T22:27:11.249Z,1.00
2022-12-26T22:29:37.803Z,1.45
2022-12-26T22:32:04.473Z,1.20
2022-12-26T22:34:31.093Z,1.20
2022-12-26T22:36:57.635Z,1.10
2022-12-26T22:39:24.378Z,1.10
2022-12-26T22:41:51.006Z,1.30
2022-12-26T22:44:17.531Z,1.30
2022-12-26T22:46:44.132Z,1.40
2022-12-26T22:49:11.766Z,1.58
2022-12-26T22:51:38.321Z,1.30
2022-12-26T22:54:04.835Z,1.50
2022-12-26T22:56:32.871Z,1.30
2022-12-26T22:59:03.260Z,1.75
2022-12-26T23:01:30.948Z,2.03
2022-12-26T23:03:57.910Z,1.40
2022-12-26T23:06:27.426Z,1.15
2022-12-26T23:08:56.812Z,1.20
2022-12-26T23:11:30.359Z,1.08
2022-12-26T23:14:02.090Z,1.40
2022-12-26T23:16:39.187Z,1.20
2022-12-26T23:19:50.410Z,1.38
2022-12-26T23:22:17.371Z,1.20
2022-12-26T23:24:43.879Z,1.20
2022-12-26T23:27:29.130Z,1.10
2022-12-26T23:30:14.673Z,1.23
2022-12-26T23:32:43.424Z,1.30
2022-12-26T23:35:13.665Z,1.48
2022-12-26T23:37:40.749Z,1.20
2022-12-26T23:40:09.121Z,1.50
2022-12-26T23:42:35.761Z,1.40
2022-12-26T23:45:02.370Z,1.30
2022-12-26T23:47:29.194Z,1.73
2022-12-26T23:49:55.706Z,1.42
2022-12-26T23:52:30.021Z,1.38
2022-12-26T23:54:57.240Z,2.72
2022-12-26T23:57:23.781Z,1.77
2022-12-26T23:59:50.326Z,1.90
